Terminal Aerodrome Forecast
Issued by NWS

Home | Current Version | Previous Version | Text Only | Print | Product List | Glossary On
Versions: 1 2 3 4 5 6 7 8 9 10 11 12 13 14 15 16 17 18 19 20 21 22 23 24 25
000
FTUS42 KMFL 161720
TAFOPF
TAF
KOPF 161720Z 1618/1718 03009KT P6SM SCT025 BKN120
     FM170000 08003KT P6SM BKN035
     FM170600 08003KT P6SM VCSH BKN025=

USA.gov is the U.S. government's official web portal to all federal, state and local government web resources and services.